Stuttgart Echterdingen, Germany

1:47 PM CEST on August 31, 2014 (GMT +0200)
Stuttgart | Change Station
CLOSE
Current Station
Airport
Location: Stuttgart Echterdingen,
Elevation: 1283 ft
Nearby Weather Stations

Elev 1283 ft 48.69 °N, 9.23 °E | Updated 27 minutes ago

Rain
Rain
57 °F
Feels Like 57 °F
N
8
Wind Variable Wind from WNW

Today
High -- | Low -- °F
--% Chance of Precip.
Yesterday
High -- | Low -- °F
Precip. -- in
6:38 AM 8:07 PM
Waxing Crescent, 30% visible
Pressure 29.98 in
Visibility 6.2 miles
Clouds Few 1200 ft
Mostly Cloudy 3000 ft
Mostly Cloudy 5000 ft
Dew Point 55 °F
Humidity 94%
Rainfall 0.00 in
Snow Depth Not available.
UV 4 out of 12
Pollen Not available.
Air Quality Not available.
Flu Activity Not available.
METAR EDDS 311120Z 29007KT 9999 RA FEW012 BKN030 BKN050 14/13 Q1015 TEMPO NSW

More Conditions Fewer Conditions

Pressure 29.98 in
Visibility 6.2 miles
Clouds Few 1200 ft
Mostly Cloudy 3000 ft
Mostly Cloudy 5000 ft
Dew Point 55 °F
Humidity 94%
Rainfall 0.00 in
Snow Depth Not available.
UV 4 out of 12
Pollen Not available.
Air Quality Not available.
Flu Activity Not available.
METAR EDDS 311120Z 29007KT 9999 RA FEW012 BKN030 BKN050 14/13 Q1015 TEMPO NSW

More Conditions Fewer Conditions

10-Day Weather Forecast

Almanac

Astronomy

Aug. 31, 2014 Rise Set
Actual Time 6:38 AM CEST 8:07 PM CEST
Civil Twilight 6:05 AM CEST 8:40 PM CEST
Nautical Twilight 5:25 AM CEST 9:20 PM CEST
Astronomical Twilight 4:42 AM CEST 10:03 PM CEST
Moon 12:38 PM CEST 10:40 PM CEST
Length of Visible Light 14h 34m
Length of Day
13h 29m
Tomorrow will be 3m 26s shorter.
Waxing Crescent, 30% of the Moon is Illuminated
Today
Waxing Crescent
Sep 2
First Quarter
Sep 8
Full
Sep 15
Last Quarter
Sep 24
New

Yesterday's Extremes

Country Highs Country Lows

Community

WunderPhotos

Upload Photos

1,748,848 photos uploaded!

Nearby

Snow Depth

Not available.

Earthquake Activity

City Distance Mag. Time & Date
No recent earthquake activity has been reported nearby.
Minimum magnitude displayed is 2.5.

Coastal Water Temperatures

Place Temperature
No Stations Reporting

Nearby Weather Stations